Time;durP1;ratioP1;P1;durP2;ratioP2;P2;SDS_P1;SDS_P2;PMS_P1;PMS_P2;Temp;Humidity;BMP_temperature;BMP_pressure;BME280_temperature;BME280_humidity;BME280_pressure;Samples;Min_cycle;Max_cycle;Signal;HPM_P1;HPM_P2
2022/10/30 00:02:21;;;;;;;4.80;1.20;;;12.90;99.90;;;;;;4994079;28;20217;-85
2022/10/30 00:04:52;;;;;;;3.83;1.30;;;12.70;99.90;;;;;;4995497;28;20276;-85
2022/10/30 00:07:24;;;;;;;10.57;1.43;;;12.70;99.90;;;;;;4994777;28;20575;-85
2022/10/30 00:09:55;;;;;;;5.77;2.60;;;12.60;99.90;;;;;;4998250;28;20230;-86
2022/10/30 00:12:26;;;;;;;11.00;6.90;;;12.60;99.90;;;;;;4996895;28;20667;-85
2022/10/30 00:14:57;;;;;;;14.63;12.07;;;12.50;99.90;;;;;;4995067;28;20290;-84
2022/10/30 00:17:30;;;;;;;5.57;3.47;;;12.50;99.90;;;;;;4998297;28;20558;-85
2022/10/30 00:20:01;;;;;;;3.40;1.83;;;12.40;99.90;;;;;;4997647;28;20565;-85
2022/10/30 00:22:33;;;;;;;3.97;1.63;;;12.40;99.90;;;;;;4995167;28;20213;-86
2022/10/30 00:25:04;;;;;;;3.97;1.63;;;12.30;99.90;;;;;;4995285;28;20210;-85
2022/10/30 00:27:35;;;;;;;5.00;1.97;;;12.20;99.90;;;;;;4995548;28;20219;-85
2022/10/30 00:30:07;;;;;;;6.87;3.17;;;12.20;99.90;;;;;;4995173;28;20238;-84
2022/10/30 00:32:40;;;;;;;4.23;2.60;;;12.00;99.90;;;;;;4994095;28;20213;-85
2022/10/30 00:35:11;;;;;;;4.43;2.00;;;12.00;99.90;;;;;;4994771;28;20210;-86
2022/10/30 00:37:42;;;;;;;6.63;2.57;;;11.90;99.90;;;;;;4994876;28;20211;-85
2022/10/30 00:40:16;;;;;;;4.93;2.40;;;11.80;99.90;;;;;;4979509;28;20215;-84
2022/10/30 00:42:47;;;;;;;5.27;2.40;;;11.70;99.90;;;;;;4974260;28;20581;-86
2022/10/30 00:45:19;;;;;;;4.53;2.23;;;11.60;99.90;;;;;;4975414;28;20196;-85
2022/10/30 00:47:56;;;;;;;7.40;2.20;;;11.60;99.90;;;;;;4975357;28;20218;-86
2022/10/30 00:50:31;;;;;;;3.87;2.27;;;11.50;99.90;;;;;;4975454;28;20239;-85
2022/10/30 00:53:06;;;;;;;5.57;2.60;;;11.40;99.90;;;;;;4974098;28;20660;-86
2022/10/30 00:55:41;;;;;;;4.50;2.20;;;11.30;99.90;;;;;;4975029;28;20206;-84
2022/10/30 00:58:15;;;;;;;3.27;2.00;;;11.20;99.90;;;;;;4975132;28;20218;-84
2022/10/30 01:00:52;;;;;;;5.40;2.20;;;11.20;99.90;;;;;;4975169;28;20222;-85
2022/10/30 01:03:27;;;;;;;4.47;2.10;;;11.10;99.90;;;;;;4974287;28;20699;-85
2022/10/30 01:06:02;;;;;;;5.80;2.10;;;11.10;99.90;;;;;;4974550;28;20225;-85
2022/10/30 01:08:34;;;;;;;5.73;2.67;;;11.00;99.90;;;;;;4974839;28;20211;-86
2022/10/30 01:11:06;;;;;;;8.10;2.87;;;11.00;99.90;;;;;;4974854;28;20215;-85
2022/10/30 01:13:39;;;;;;;8.23;4.70;;;11.00;99.90;;;;;;4973641;28;20206;-86
2022/10/30 01:16:26;;;;;;;41.30;28.93;;;11.00;99.90;;;;;;4974668;28;20206;-85
2022/10/30 01:19:08;;;;;;;78.03;57.20;;;10.90;99.90;;;;;;4974341;28;20250;-86
2022/10/30 01:21:50;;;;;;;26.33;18.60;;;10.90;99.90;;;;;;4974474;28;20206;-83
2022/10/30 01:24:35;;;;;;;13.60;10.03;;;10.90;99.90;;;;;;4974544;28;20229;-85
2022/10/30 01:27:17;;;;;;;9.77;4.60;;;10.80;99.90;;;;;;4974713;28;20198;-84
2022/10/30 01:30:01;;;;;;;5.97;3.17;;;10.80;99.90;;;;;;4972685;28;20237;-86
2022/10/30 01:32:46;;;;;;;6.07;2.37;;;10.70;99.90;;;;;;4973405;28;20233;-84
2022/10/30 01:35:24;;;;;;;4.97;1.93;;;10.60;99.90;;;;;;4976862;28;20225;-86
2022/10/30 01:38:01;;;;;;;4.43;2.50;;;10.50;99.90;;;;;;4975165;28;20213;-85
2022/10/30 01:40:33;;;;;;;3.63;2.20;;;10.50;99.90;;;;;;4992122;28;20218;-85
2022/10/30 01:43:05;;;;;;;5.30;1.87;;;10.40;99.90;;;;;;4994473;28;20207;-85
2022/10/30 01:46:05;;;;;;;4.50;2.10;;;10.30;99.90;;;;;;5016130;28;20212;-85
2022/10/30 01:48:58;;;;;;;10.00;2.83;;;10.30;99.90;;;;;;5013394;28;20209;-86
2022/10/30 01:51:43;;;;;;;4.83;2.30;;;10.20;99.90;;;;;;5013045;28;20646;-85
2022/10/30 01:54:26;;;;;;;4.13;2.30;;;10.20;99.90;;;;;;5012271;28;20214;-84
2022/10/30 01:57:07;;;;;;;5.20;2.00;;;10.20;99.90;;;;;;5013404;28;20689;-85
2022/10/30 01:59:40;;;;;;;5.33;2.50;;;10.20;99.90;;;;;;5013092;28;20205;-85
2022/10/30 02:02:11;;;;;;;5.50;2.27;;;10.20;99.90;;;;;;5012379;28;20244;-84
2022/10/30 02:04:44;;;;;;;5.23;2.40;;;10.20;99.90;;;;;;5013209;28;20221;-85
2022/10/30 02:07:18;;;;;;;5.07;2.30;;;10.10;99.90;;;;;;5011889;28;20210;-85
2022/10/30 02:09:52;;;;;;;4.47;2.57;;;10.10;99.90;;;;;;5013026;28;20594;-85
2022/10/30 02:12:25;;;;;;;5.37;2.43;;;10.00;99.90;;;;;;5011163;28;20236;-86
2022/10/30 02:14:59;;;;;;;4.30;2.80;;;10.00;99.90;;;;;;5013398;28;20209;-84
2022/10/30 02:17:32;;;;;;;4.03;2.67;;;10.00;99.90;;;;;;5016247;28;20662;-85
2022/10/30 02:20:03;;;;;;;7.33;2.93;;;9.90;99.90;;;;;;5017883;28;20275;-84
2022/10/30 02:22:37;;;;;;;6.93;3.27;;;9.90;99.90;;;;;;5017591;28;20217;-84
2022/10/30 02:25:08;;;;;;;4.20;3.10;;;9.80;99.90;;;;;;5020622;28;20514;-85
2022/10/30 02:27:40;;;;;;;7.47;3.20;;;9.80;99.90;;;;;;5021865;28;20209;-84
2022/10/30 02:30:11;;;;;;;8.20;2.80;;;9.80;99.90;;;;;;5016810;28;20255;-85
2022/10/30 02:32:42;;;;;;;6.20;2.70;;;9.90;99.90;;;;;;5016023;28;20213;-85
2022/10/30 02:35:14;;;;;;;6.10;2.60;;;9.90;99.90;;;;;;5016089;28;20572;-85
2022/10/30 02:37:50;;;;;;;5.03;2.77;;;9.90;99.90;;;;;;5012979;28;20210;-84
2022/10/30 02:40:21;;;;;;;9.57;3.00;;;9.80;99.90;;;;;;4997998;28;20210;-85
2022/10/30 02:42:55;;;;;;;6.77;2.93;;;9.80;99.90;;;;;;4999125;28;20285;-85
2022/10/30 02:45:27;;;;;;;6.03;2.53;;;9.80;99.90;;;;;;4998149;28;20223;-84
2022/10/30 02:48:00;;;;;;;7.30;3.03;;;9.70;99.90;;;;;;4998753;28;20297;-84
2022/10/30 02:50:31;;;;;;;5.50;2.30;;;9.70;99.90;;;;;;4997057;28;20256;-85
2022/10/30 02:53:04;;;;;;;5.97;2.03;;;9.60;99.90;;;;;;4996481;28;20566;-85
2022/10/30 02:55:35;;;;;;;6.50;2.73;;;9.60;99.90;;;;;;4997359;28;20203;-84
2022/10/30 02:58:07;;;;;;;4.37;2.07;;;9.60;99.90;;;;;;4996647;28;20225;-86
2022/10/30 03:00:38;;;;;;;3.93;2.40;;;9.50;99.90;;;;;;4996362;28;20207;-90
2022/10/30 03:03:09;;;;;;;8.27;2.83;;;9.50;99.90;;;;;;4995614;28;20215;-84
2022/10/30 03:05:40;;;;;;;6.13;2.97;;;9.50;99.90;;;;;;4996697;28;20297;-85
2022/10/30 03:08:14;;;;;;;5.53;2.60;;;9.50;99.90;;;;;;4996545;28;20574;-85
2022/10/30 03:10:46;;;;;;;9.47;2.70;;;9.40;99.90;;;;;;4977192;28;20707;-85
2022/10/30 03:13:18;;;;;;;8.77;3.00;;;9.40;99.90;;;;;;4974988;28;20214;-84
2022/10/30 03:15:49;;;;;;;6.00;3.07;;;9.40;99.90;;;;;;4975703;28;20206;-84
2022/10/30 03:18:20;;;;;;;7.40;3.23;;;9.30;99.90;;;;;;4976608;28;20213;-85
2022/10/30 03:20:52;;;;;;;6.33;3.40;;;9.30;99.90;;;;;;4976535;28;20207;-85
2022/10/30 03:23:25;;;;;;;4.80;3.30;;;9.20;99.90;;;;;;4975840;28;20210;-84
2022/10/30 03:25:57;;;;;;;7.33;2.13;;;9.20;99.90;;;;;;4976539;28;20213;-84
2022/10/30 03:28:30;;;;;;;6.40;2.70;;;9.20;99.90;;;;;;4975832;28;20207;-84
2022/10/30 03:31:02;;;;;;;5.17;3.00;;;9.20;99.90;;;;;;4990958;28;20357;-85
2022/10/30 03:33:34;;;;;;;4.20;2.33;;;9.20;99.90;;;;;;4995206;28;20214;-85
2022/10/30 03:36:07;;;;;;;4.93;2.77;;;9.30;99.90;;;;;;4995758;28;20206;-85
2022/10/30 03:38:40;;;;;;;6.77;2.90;;;9.30;99.90;;;;;;4993838;28;20206;-85
2022/10/30 03:41:11;;;;;;;6.87;2.50;;;9.30;99.90;;;;;;4977023;28;20316;-85
2022/10/30 03:43:42;;;;;;;5.20;2.73;;;9.30;99.90;;;;;;4975604;28;20215;-86
2022/10/30 03:46:14;;;;;;;4.40;2.40;;;9.40;99.90;;;;;;4976728;28;20895;-85
2022/10/30 03:48:45;;;;;;;3.63;2.70;;;9.40;99.90;;;;;;4977003;28;20641;-87
2022/10/30 03:51:16;;;;;;;6.90;2.47;;;9.40;99.90;;;;;;4976374;28;20711;-85
2022/10/30 03:53:50;;;;;;;5.83;2.53;;;9.40;99.90;;;;;;4975393;28;20234;-84
2022/10/30 03:56:21;;;;;;;8.23;2.50;;;9.50;99.90;;;;;;4976049;28;20203;-84
2022/10/30 03:58:53;;;;;;;9.17;3.00;;;9.50;99.90;;;;;;4975962;28;20223;-83
2022/10/30 04:01:24;;;;;;;5.93;2.73;;;9.60;99.90;;;;;;4994385;28;20206;-84
2022/10/30 04:03:55;;;;;;;6.80;2.80;;;9.60;99.90;;;;;;4997192;28;20689;-85
2022/10/30 04:06:26;;;;;;;6.17;2.67;;;9.60;99.90;;;;;;4995468;28;20214;-85
2022/10/30 04:08:59;;;;;;;4.23;2.47;;;9.60;99.90;;;;;;4997710;28;20262;-85
2022/10/30 04:11:29;;;;;;;4.97;2.70;;;9.50;99.90;;;;;;4995901;28;20580;-84
2022/10/30 04:14:00;;;;;;;4.83;2.87;;;9.60;99.90;;;;;;4994190;28;20276;-84
2022/10/30 04:16:32;;;;;;;6.10;2.87;;;9.70;99.90;;;;;;4997643;28;20217;-85
2022/10/30 04:19:04;;;;;;;6.53;3.00;;;9.70;99.90;;;;;;4997755;28;20213;-85
2022/10/30 04:21:35;;;;;;;5.93;2.77;;;9.70;99.90;;;;;;4997569;28;20213;-84
2022/10/30 04:24:09;;;;;;;8.37;3.47;;;9.70;99.90;;;;;;4994527;28;20218;-85
2022/10/30 04:26:41;;;;;;;5.07;3.10;;;10.00;99.90;;;;;;4995520;28;20221;-86
2022/10/30 04:29:14;;;;;;;8.93;3.10;;;10.00;99.90;;;;;;4994595;28;20211;-85
2022/10/30 04:31:45;;;;;;;7.23;2.77;;;10.00;99.90;;;;;;4975426;28;20606;-85
2022/10/30 04:34:16;;;;;;;4.60;2.27;;;10.00;99.90;;;;;;4975112;28;20217;-85
2022/10/30 04:36:48;;;;;;;4.80;2.50;;;9.90;99.90;;;;;;4976021;28;20222;-85
2022/10/30 04:39:21;;;;;;;5.87;2.67;;;9.90;99.90;;;;;;4992000;28;20243;-85
2022/10/30 04:41:52;;;;;;;5.10;2.70;;;10.00;99.90;;;;;;4995064;28;20202;-84
2022/10/30 04:44:25;;;;;;;5.90;3.00;;;10.00;99.90;;;;;;4995202;28;20225;-83
2022/10/30 04:46:59;;;;;;;5.90;3.00;;;10.10;99.90;;;;;;4996084;28;20757;-84
2022/10/30 04:49:30;;;;;;;4.50;3.00;;;10.10;99.90;;;;;;4996313;28;20213;-85
2022/10/30 04:52:01;;;;;;;5.83;3.10;;;10.10;99.90;;;;;;5011602;28;20221;-86
2022/10/30 04:54:34;;;;;;;7.57;3.40;;;10.10;99.90;;;;;;5015302;28;20224;-85
2022/10/30 04:57:07;;;;;;;5.03;2.97;;;10.20;99.90;;;;;;5014301;28;20277;-85
2022/10/30 04:59:39;;;;;;;9.03;3.47;;;10.20;99.90;;;;;;5003240;28;20203;-83
2022/10/30 05:02:11;;;;;;;7.77;3.60;;;10.30;99.90;;;;;;4994940;28;20210;-83
2022/10/30 05:04:42;;;;;;;7.33;3.30;;;10.30;99.90;;;;;;4995384;28;20214;-85
2022/10/30 05:07:14;;;;;;;8.07;3.53;;;10.40;99.90;;;;;;4995384;28;20214;-85
2022/10/30 05:09:47;;;;;;;6.13;3.47;;;10.40;99.90;;;;;;4994819;28;20210;-83
2022/10/30 05:12:19;;;;;;;8.17;3.20;;;10.40;99.90;;;;;;4993528;28;20810;-86
2022/10/30 05:14:50;;;;;;;7.60;3.30;;;10.30;99.90;;;;;;4994865;28;20669;-84
2022/10/30 05:17:22;;;;;;;9.37;3.20;;;10.30;99.90;;;;;;4994951;28;20213;-84
2022/10/30 05:19:53;;;;;;;4.47;2.50;;;10.30;99.90;;;;;;4994301;28;20217;-85
2022/10/30 05:22:24;;;;;;;6.27;2.93;;;10.40;99.90;;;;;;4993260;28;20216;-83
2022/10/30 05:24:57;;;;;;;6.43;3.27;;;10.40;99.90;;;;;;4994084;28;20214;-84
2022/10/30 05:27:29;;;;;;;6.73;2.67;;;10.50;99.90;;;;;;4994050;28;20585;-85
2022/10/30 05:30:00;;;;;;;5.07;2.97;;;10.50;99.90;;;;;;4994033;28;20573;-85
2022/10/30 05:32:31;;;;;;;6.23;2.73;;;10.50;99.90;;;;;;4994643;28;20234;-86
2022/10/30 05:35:03;;;;;;;9.53;3.20;;;10.50;99.90;;;;;;4999112;28;20216;-85
2022/10/30 05:37:34;;;;;;;3.37;2.50;;;10.50;99.90;;;;;;5007428;28;20218;-85
2022/10/30 05:40:09;;;;;;;4.00;2.80;;;10.50;99.90;;;;;;4989139;28;20214;-85
2022/10/30 05:42:47;;;;;;;4.63;2.83;;;10.50;99.90;;;;;;4996387;28;20260;-86
2022/10/30 05:45:18;;;;;;;8.13;3.27;;;10.50;99.90;;;;;;4995383;28;20254;-84
2022/10/30 05:47:56;;;;;;;6.63;3.17;;;10.40;99.90;;;;;;4992617;28;20198;-85
2022/10/30 05:50:29;;;;;;;6.83;3.20;;;10.40;99.90;;;;;;4993959;28;20213;-83
2022/10/30 05:53:00;;;;;;;7.33;3.40;;;10.50;99.90;;;;;;4992909;28;20234;-85
2022/10/30 05:55:35;;;;;;;6.40;3.43;;;10.50;99.90;;;;;;4993671;28;20202;-84
2022/10/30 05:58:07;;;;;;;8.57;3.23;;;10.50;99.90;;;;;;4978113;28;20545;-84
2022/10/30 06:00:40;;;;;;;5.67;3.20;;;10.50;99.90;;;;;;4993576;28;20577;-84
2022/10/30 06:03:13;;;;;;;6.20;3.17;;;10.50;99.90;;;;;;4993146;28;20214;-83
2022/10/30 06:05:46;;;;;;;6.17;2.87;;;10.40;99.90;;;;;;4992457;28;20573;-84
2022/10/30 06:08:18;;;;;;;7.17;2.90;;;10.40;99.90;;;;;;4993489;28;20203;-84
2022/10/30 06:10:51;;;;;;;8.70;3.03;;;10.50;99.90;;;;;;4974298;28;20229;-84
2022/10/30 06:13:22;;;;;;;7.13;3.23;;;10.50;99.90;;;;;;4973274;28;20246;-85
2022/10/30 06:15:56;;;;;;;6.47;3.20;;;10.50;99.90;;;;;;4974197;28;20214;-85
2022/10/30 06:18:28;;;;;;;8.03;3.27;;;10.60;99.90;;;;;;4972942;28;20211;-84
2022/10/30 06:20:58;;;;;;;7.30;3.17;;;10.50;99.90;;;;;;4974240;28;20211;-84
2022/10/30 06:23:30;;;;;;;4.80;3.13;;;10.60;99.90;;;;;;4973266;28;20675;-84
2022/10/30 06:26:03;;;;;;;7.73;3.20;;;10.60;99.90;;;;;;4973619;28;20211;-85
2022/10/30 06:28:34;;;;;;;10.47;3.57;;;10.60;99.90;;;;;;4974095;28;20215;-85
2022/10/30 06:31:06;;;;;;;7.00;3.80;;;10.70;99.90;;;;;;4973784;28;20223;-85
2022/10/30 06:33:39;;;;;;;10.17;3.80;;;10.70;99.90;;;;;;4975491;28;20245;-84
2022/10/30 06:36:10;;;;;;;8.00;4.00;;;10.70;99.90;;;;;;4974166;28;20203;-83
2022/10/30 06:38:41;;;;;;;7.87;3.27;;;10.70;99.90;;;;;;4974210;28;20664;-84
2022/10/30 06:41:15;;;;;;;8.27;3.40;;;10.70;99.90;;;;;;4976957;28;20214;-84
2022/10/30 06:43:46;;;;;;;7.60;3.70;;;10.80;99.90;;;;;;4975650;28;20219;-85
2022/10/30 06:46:17;;;;;;;6.67;3.90;;;10.80;99.90;;;;;;4973726;28;20207;-84
2022/10/30 06:48:48;;;;;;;8.07;4.33;;;10.80;99.90;;;;;;4973996;28;20575;-84
2022/10/30 06:51:19;;;;;;;11.80;4.07;;;10.80;99.90;;;;;;4974191;28;20219;-84
2022/10/30 06:53:50;;;;;;;9.77;3.93;;;10.80;99.90;;;;;;4975037;28;20330;-84
2022/10/30 06:56:23;;;;;;;8.23;3.47;;;10.80;99.90;;;;;;4974016;28;20226;-84
2022/10/30 06:58:54;;;;;;;11.70;4.20;;;10.80;99.90;;;;;;4973616;28;20593;-85
2022/10/30 07:01:26;;;;;;;8.33;3.87;;;10.80;99.90;;;;;;4972328;28;20660;-84
2022/10/30 07:03:57;;;;;;;10.37;4.23;;;10.80;99.90;;;;;;4976002;28;20215;-85
2022/10/30 07:06:28;;;;;;;8.37;4.23;;;10.80;99.90;;;;;;4976222;28;20218;-84
2022/10/30 07:09:00;;;;;;;10.77;4.20;;;10.80;99.90;;;;;;4982348;28;20207;-85
2022/10/30 07:11:33;;;;;;;9.57;4.40;;;10.80;99.90;;;;;;4996976;28;20206;-84
2022/10/30 07:14:04;;;;;;;7.40;4.13;;;10.80;99.90;;;;;;4995998;28;20288;-83
2022/10/30 07:16:36;;;;;;;7.73;4.40;;;10.80;99.90;;;;;;4995497;28;20218;-85
2022/10/30 07:19:07;;;;;;;7.30;4.30;;;10.70;99.90;;;;;;4996366;28;20206;-86
2022/10/30 07:21:38;;;;;;;9.07;4.40;;;10.70;99.90;;;;;;4996638;28;20202;-84
2022/10/30 07:24:10;;;;;;;8.67;4.73;;;10.70;99.90;;;;;;4995403;28;20212;-85
2022/10/30 07:26:45;;;;;;;8.13;4.40;;;10.70;99.90;;;;;;4996704;28;20207;-84
2022/10/30 07:29:17;;;;;;;11.17;5.07;;;10.70;99.90;;;;;;4995780;28;20570;-85
2022/10/30 07:31:49;;;;;;;13.73;4.43;;;10.70;99.90;;;;;;4997841;28;20210;-83
2022/10/30 07:34:33;;;;;;;10.20;4.23;;;10.70;99.90;;;;;;4998258;28;20242;-84
2022/10/30 07:37:03;;;;;;;8.33;4.10;;;10.70;99.90;;;;;;4996043;28;20209;-84
2022/10/30 07:39:34;;;;;;;8.47;4.30;;;10.70;99.90;;;;;;4986180;28;20223;-84
2022/10/30 07:42:08;;;;;;;6.50;4.10;;;10.70;99.90;;;;;;4975931;28;20221;-84
2022/10/30 07:44:39;;;;;;;6.67;3.97;;;10.70;99.90;;;;;;4978989;28;20723;-84
2022/10/30 07:47:10;;;;;;;9.93;5.63;;;10.70;99.90;;;;;;4979021;28;20217;-85
2022/10/30 07:49:41;;;;;;;9.87;5.47;;;10.60;99.90;;;;;;5001542;28;20204;-84
2022/10/30 07:52:13;;;;;;;8.27;4.43;;;10.60;99.90;;;;;;5017360;28;20588;-86
2022/10/30 07:54:46;;;;;;;9.70;4.30;;;10.60;99.90;;;;;;5016819;28;20248;-84
2022/10/30 07:57:20;;;;;;;6.67;3.63;;;10.60;99.90;;;;;;5016204;28;20214;-84
2022/10/30 07:59:51;;;;;;;7.40;3.67;;;10.60;99.90;;;;;;5009708;28;20229;-84
2022/10/30 08:02:25;;;;;;;8.07;4.03;;;10.60;99.90;;;;;;4994726;28;20209;-84
2022/10/30 08:04:57;;;;;;;11.03;4.10;;;10.60;99.90;;;;;;4996026;28;20206;-84
2022/10/30 08:07:31;;;;;;;7.50;4.10;;;10.60;99.90;;;;;;4995566;28;20202;-85
2022/10/30 08:10:07;;;;;;;6.00;3.77;;;10.60;99.90;;;;;;4981598;28;20218;-85
2022/10/30 08:12:42;;;;;;;7.13;4.13;;;10.50;99.90;;;;;;4975325;28;20285;-85
2022/10/30 08:15:14;;;;;;;9.87;4.07;;;10.50;99.90;;;;;;4974853;28;20283;-84
2022/10/30 08:17:46;;;;;;;7.90;3.80;;;10.50;99.90;;;;;;4975246;28;20632;-85
2022/10/30 08:20:19;;;;;;;6.40;3.77;;;10.50;99.90;;;;;;4976082;28;20655;-85
2022/10/30 08:22:50;;;;;;;6.53;4.00;;;10.50;99.90;;;;;;4974909;28;20207;-85
2022/10/30 08:25:27;;;;;;;9.80;3.60;;;10.40;99.90;;;;;;4975684;28;20211;-85
2022/10/30 08:28:02;;;;;;;5.67;4.33;;;10.40;99.90;;;;;;4975841;28;20210;-85
2022/10/30 08:30:35;;;;;;;7.83;4.00;;;10.40;99.90;;;;;;4975357;28;20214;-85
2022/10/30 08:33:08;;;;;;;8.20;3.73;;;10.40;99.90;;;;;;4974564;28;20231;-84
2022/10/30 08:35:39;;;;;;;8.67;4.30;;;10.40;99.90;;;;;;4975762;28;20215;-84
2022/10/30 08:38:11;;;;;;;7.10;3.67;;;10.40;99.90;;;;;;4985166;28;20581;-85
2022/10/30 08:40:42;;;;;;;5.33;3.00;;;10.40;99.90;;;;;;4995254;28;20305;-85
2022/10/30 08:43:16;;;;;;;8.37;3.83;;;10.40;99.90;;;;;;4994229;28;20202;-84
2022/10/30 08:45:47;;;;;;;7.33;3.90;;;10.40;99.90;;;;;;4995137;28;20208;-85
2022/10/30 08:48:18;;;;;;;7.30;3.13;;;10.40;99.90;;;;;;4994732;28;20214;-84
2022/10/30 08:50:50;;;;;;;7.33;4.00;;;10.30;99.90;;;;;;4994734;28;20237;-85
2022/10/30 08:53:22;;;;;;;10.17;4.23;;;10.20;99.90;;;;;;4992728;28;20257;-85
2022/10/30 08:55:53;;;;;;;7.13;3.60;;;10.20;99.90;;;;;;4994993;28;20207;-84
2022/10/30 08:58:27;;;;;;;5.40;3.57;;;10.10;99.90;;;;;;4994594;28;20671;-83
2022/10/30 09:00:58;;;;;;;5.50;3.80;;;10.00;99.90;;;;;;4993240;28;20216;-84
2022/10/30 09:03:31;;;;;;;9.83;4.43;;;10.00;99.90;;;;;;4992826;28;20278;-84
2022/10/30 09:06:02;;;;;;;8.07;3.97;;;9.90;99.90;;;;;;4994225;28;20255;-84
2022/10/30 09:08:33;;;;;;;10.10;3.67;;;9.80;99.90;;;;;;4992858;28;20214;-85
2022/10/30 09:11:04;;;;;;;7.67;3.87;;;9.70;99.90;;;;;;4980393;28;20215;-85
2022/10/30 09:13:37;;;;;;;8.90;4.20;;;9.70;99.90;;;;;;4976257;28;20245;-83
2022/10/30 09:16:09;;;;;;;7.83;3.87;;;9.60;99.90;;;;;;4975242;28;20587;-84
2022/10/30 09:18:40;;;;;;;7.10;4.77;;;9.60;99.90;;;;;;4975584;28;20207;-85
2022/10/30 09:21:11;;;;;;;7.10;3.80;;;9.60;99.90;;;;;;4977745;28;20221;-84
2022/10/30 09:23:44;;;;;;;8.80;4.47;;;9.50;99.90;;;;;;4974377;28;20628;-85
2022/10/30 09:26:15;;;;;;;8.80;4.10;;;9.50;99.90;;;;;;4973542;28;20667;-84
2022/10/30 09:28:52;;;;;;;8.77;4.00;;;9.50;99.90;;;;;;4974859;28;20210;-85
2022/10/30 09:31:23;;;;;;;8.30;4.53;;;9.50;99.90;;;;;;4974607;28;20203;-85
2022/10/30 09:33:54;;;;;;;8.17;4.07;;;9.40;99.90;;;;;;4973718;28;20258;-83
2022/10/30 09:36:25;;;;;;;7.37;4.10;;;9.40;99.90;;;;;;4975292;28;20211;-83
2022/10/30 09:38:56;;;;;;;6.83;4.00;;;9.40;99.90;;;;;;4979500;28;20627;-85
2022/10/30 09:41:58;;;;;;;8.10;4.30;;;9.40;99.90;;;;;;4994043;28;20205;-84
2022/10/30 09:44:42;;;;;;;7.50;4.10;;;9.40;99.90;;;;;;4993603;28;20622;-84
2022/10/30 09:47:34;;;;;;;8.10;4.13;;;9.40;99.90;;;;;;4993528;28;20629;-84
2022/10/30 09:50:22;;;;;;;8.10;3.73;;;9.40;99.90;;;;;;4993898;28;20659;-84
2022/10/30 09:53:04;;;;;;;5.97;4.00;;;9.40;99.90;;;;;;5009331;28;20213;-84
2022/10/30 09:55:46;;;;;;;8.97;4.40;;;9.50;99.90;;;;;;5013360;28;20206;-84
2022/10/30 09:58:29;;;;;;;7.93;4.03;;;9.40;99.90;;;;;;5013493;28;20216;-84
2022/10/30 10:01:13;;;;;;;7.63;4.10;;;9.40;99.90;;;;;;5013442;28;20656;-84
2022/10/30 10:03:58;;;;;;;10.00;4.23;;;9.40;99.90;;;;;;5012346;28;20229;-85
2022/10/30 10:06:30;;;;;;;9.07;3.73;;;9.40;99.90;;;;;;5013143;28;20201;-84
2022/10/30 10:09:05;;;;;;;8.17;3.90;;;9.40;99.90;;;;;;5008438;28;20222;-85
2022/10/30 10:11:40;;;;;;;7.60;4.00;;;9.40;99.90;;;;;;4993709;28;20631;-84
2022/10/30 10:14:19;;;;;;;7.13;3.73;;;9.40;99.90;;;;;;4992604;28;20603;-84
2022/10/30 10:16:54;;;;;;;9.53;4.10;;;9.40;99.90;;;;;;4993785;28;20217;-85
2022/10/30 10:19:33;;;;;;;8.87;3.87;;;9.40;99.90;;;;;;4993994;28;20220;-85
2022/10/30 10:22:11;;;;;;;8.73;4.00;;;9.40;99.90;;;;;;4992510;28;20204;-85
2022/10/30 10:24:46;;;;;;;8.47;4.37;;;9.40;99.90;;;;;;4995335;28;20217;-86
2022/10/30 10:27:40;;;;;;;6.67;3.70;;;9.40;99.90;;;;;;4995983;28;20215;-85
2022/10/30 10:30:15;;;;;;;7.73;4.10;;;9.40;99.90;;;;;;4995301;28;20210;-85
2022/10/30 10:33:02;;;;;;;8.87;3.80;;;9.40;99.90;;;;;;5003419;28;20206;-85
2022/10/30 10:35:52;;;;;;;7.47;3.77;;;9.40;99.90;;;;;;5003503;28;20238;-85
2022/10/30 10:38:42;;;;;;;6.23;3.70;;;9.40;99.90;;;;;;5004118;28;20214;-84
2022/10/30 10:41:23;;;;;;;7.87;3.60;;;9.40;99.90;;;;;;4997002;28;20682;-84
2022/10/30 10:44:07;;;;;;;8.37;4.27;;;9.30;99.90;;;;;;4998381;28;20213;-85
2022/10/30 10:47:02;;;;;;;8.10;3.77;;;9.20;99.90;;;;;;4997248;28;20664;-84
2022/10/30 10:49:58;;;;;;;7.10;3.70;;;9.20;99.90;;;;;;4997059;28;20745;-84
2022/10/30 10:52:38;;;;;;;6.30;3.87;;;9.20;99.90;;;;;;4994656;28;20214;-85
2022/10/30 10:55:16;;;;;;;8.80;3.93;;;9.10;99.90;;;;;;4996686;28;20249;-84
2022/10/30 10:57:50;;;;;;;5.70;3.43;;;9.10;99.90;;;;;;4996624;28;20220;-85
2022/10/30 11:00:24;;;;;;;10.03;4.13;;;9.10;99.90;;;;;;4987464;28;20668;-85
2022/10/30 11:03:01;;;;;;;6.97;3.93;;;9.10;99.90;;;;;;4976058;28;20568;-84
2022/10/30 11:05:37;;;;;;;6.03;4.27;;;9.00;99.90;;;;;;4977286;28;20209;-84
2022/10/30 11:08:15;;;;;;;7.50;3.77;;;9.00;99.90;;;;;;4977013;28;20220;-85
2022/10/30 11:10:48;;;;;;;5.80;3.70;;;9.00;99.90;;;;;;4977067;28;20206;-84
2022/10/30 11:13:19;;;;;;;5.83;3.70;;;9.00;99.90;;;;;;4976246;28;20207;-84
2022/10/30 11:16:00;;;;;;;8.20;3.67;;;9.00;99.90;;;;;;4976782;28;20246;-84
2022/10/30 11:18:31;;;;;;;6.00;2.97;;;9.10;99.90;;;;;;4977428;28;20240;-86
2022/10/30 11:21:08;;;;;;;7.27;3.33;;;9.20;99.90;;;;;;4977170;28;20221;-85
2022/10/30 11:23:41;;;;;;;8.60;4.13;;;9.20;99.90;;;;;;4976215;28;20213;-85
2022/10/30 11:26:32;;;;;;;6.63;3.50;;;9.20;99.90;;;;;;4977163;28;20207;-85
2022/10/30 11:29:07;;;;;;;7.70;3.70;;;9.20;99.90;;;;;;4976756;28;20668;-84
2022/10/30 11:31:40;;;;;;;6.50;3.90;;;9.20;99.90;;;;;;4976314;28;20206;-85
2022/10/30 11:34:33;;;;;;;8.90;3.43;;;9.20;99.90;;;;;;4975804;28;20219;-85
2022/10/30 11:37:06;;;;;;;7.93;3.20;;;9.20;99.90;;;;;;4974805;28;20223;-85
2022/10/30 11:39:38;;;;;;;5.63;3.40;;;9.30;99.90;;;;;;4987292;28;20206;-84
2022/10/30 11:42:15;;;;;;;7.13;3.20;;;9.30;99.90;;;;;;4994869;28;20214;-83
2022/10/30 11:44:50;;;;;;;7.93;3.33;;;9.30;99.90;;;;;;4996234;28;20210;-85
2022/10/30 11:47:28;;;;;;;6.70;3.13;;;9.30;99.90;;;;;;4998635;28;20209;-86
2022/10/30 11:50:02;;;;;;;6.97;3.13;;;9.30;99.90;;;;;;4995982;28;20224;-84
2022/10/30 11:52:40;;;;;;;7.90;4.10;;;9.40;99.90;;;;;;4995453;28;20203;-85
2022/10/30 11:55:17;;;;;;;5.60;2.93;;;9.50;99.90;;;;;;4996070;28;20237;-84
2022/10/30 11:57:50;;;;;;;5.70;2.70;;;9.50;99.90;;;;;;4996104;28;20655;-85
2022/10/30 12:00:23;;;;;;;10.93;2.97;;;9.40;99.90;;;;;;4997001;28;20209;-85
2022/10/30 12:02:56;;;;;;;5.53;2.87;;;9.50;99.90;;;;;;5016469;28;20228;-85
2022/10/30 12:05:48;;;;;;;7.50;3.20;;;9.50;99.90;;;;;;5016684;28;20235;-85
2022/10/30 12:08:23;;;;;;;6.40;3.03;;;9.60;99.90;;;;;;5015454;28;20293;-85
2022/10/30 12:11:00;;;;;;;4.60;2.50;;;9.60;99.90;;;;;;5015369;28;20209;-84
2022/10/30 12:13:40;;;;;;;3.37;2.30;;;9.60;99.90;;;;;;5017014;28;20213;-85
2022/10/30 12:16:21;;;;;;;8.83;2.70;;;9.70;99.90;;;;;;5015620;28;20580;-84
2022/10/30 12:19:00;;;;;;;4.50;2.40;;;9.70;99.90;;;;;;5015629;28;20217;-84
2022/10/30 12:21:38;;;;;;;9.33;3.07;;;9.70;99.90;;;;;;5015205;28;20217;-85
2022/10/30 12:24:19;;;;;;;7.13;2.57;;;9.70;99.90;;;;;;5014488;28;20221;-85
2022/10/30 12:26:51;;;;;;;7.30;2.70;;;9.70;99.90;;;;;;5015022;28;20256;-85
2022/10/30 12:29:27;;;;;;;8.27;2.50;;;9.70;99.90;;;;;;5012742;28;20213;-85
2022/10/30 12:32:22;;;;;;;5.00;2.17;;;9.70;99.90;;;;;;4994282;28;20225;-84
2022/10/30 12:35:00;;;;;;;4.70;2.93;;;9.80;99.90;;;;;;4994924;28;20321;-84
2022/10/30 12:37:37;;;;;;;7.10;2.60;;;9.80;99.90;;;;;;4975910;28;20214;-85
2022/10/30 12:40:18;;;;;;;5.67;2.50;;;9.80;99.90;;;;;;4990066;28;20212;-84
2022/10/30 12:43:03;;;;;;;3.27;1.97;;;9.80;99.90;;;;;;4993942;28;20529;-85
2022/10/30 12:45:42;;;;;;;3.17;1.80;;;9.80;99.90;;;;;;4994824;28;20635;-85
2022/10/30 12:48:18;;;;;;;5.83;2.83;;;9.80;99.90;;;;;;4994702;28;20206;-84
2022/10/30 12:50:58;;;;;;;4.70;2.43;;;9.90;99.90;;;;;;4995121;28;20213;-84
2022/10/30 12:53:36;;;;;;;3.97;2.10;;;9.90;99.90;;;;;;4993813;28;20615;-84
2022/10/30 12:56:14;;;;;;;4.50;2.03;;;9.80;99.90;;;;;;4994883;28;20229;-84
2022/10/30 12:58:50;;;;;;;4.47;2.40;;;9.90;99.90;;;;;;4997256;28;20214;-84
2022/10/30 13:01:27;;;;;;;5.53;2.20;;;10.00;99.90;;;;;;4993934;28;20232;-84
2022/10/30 13:04:08;;;;;;;5.90;2.30;;;10.00;99.90;;;;;;4996648;28;20666;-84
2022/10/30 13:06:43;;;;;;;4.00;1.60;;;10.00;99.90;;;;;;4997042;28;20202;-85
2022/10/30 13:09:20;;;;;;;4.93;2.00;;;9.90;99.90;;;;;;4988124;28;20236;-84
2022/10/30 13:11:55;;;;;;;5.93;2.07;;;9.90;99.90;;;;;;4975835;28;20215;-86
2022/10/30 13:14:34;;;;;;;4.60;1.87;;;10.00;99.90;;;;;;4975464;28;20219;-85
2022/10/30 13:17:10;;;;;;;2.30;1.90;;;10.00;99.90;;;;;;4975336;28;20238;-84
2022/10/30 13:19:45;;;;;;;5.50;1.80;;;10.10;99.90;;;;;;4975304;28;20269;-85
2022/10/30 13:22:22;;;;;;;3.93;1.80;;;10.10;99.90;;;;;;4977107;28;20686;-84
2022/10/30 13:25:01;;;;;;;3.43;1.73;;;10.10;99.90;;;;;;4975615;28;20218;-84
2022/10/30 13:27:41;;;;;;;4.83;2.00;;;10.10;99.90;;;;;;4975185;28;20258;-85
2022/10/30 13:30:17;;;;;;;4.83;2.10;;;10.10;99.90;;;;;;4975130;28;20229;-84